Time;durP1;ratioP1;P1;durP2;ratioP2;P2;SDS_P1;SDS_P2;PMS_P1;PMS_P2;Temp;Humidity;BMP_temperature;BMP_pressure;BME280_temperature;BME280_humidity;BME280_pressure;Samples;Min_cycle;Max_cycle;Signal;HPM_P1;HPM_P2
2024/01/01 00:02:07;;;;;;;15.17;8.37;;;;;;;6.14;100.00;99044.06;5073588;28;20725;-70
2024/01/01 00:04:33;;;;;;;15.93;6.83;;;;;;;6.16;100.00;99047.34;5098400;28;20208;-70
2024/01/01 00:06:58;;;;;;;11.53;6.90;;;;;;;6.15;100.00;99050.81;5111069;28;20171;-68
2024/01/01 00:09:23;;;;;;;9.87;6.23;;;;;;;6.28;100.00;99045.88;5080868;28;20540;-69
2024/01/01 00:11:49;;;;;;;11.97;5.43;;;;;;;6.26;100.00;99037.47;5081592;28;20226;-76
2024/01/01 00:14:14;;;;;;;9.03;5.53;;;;;;;6.28;100.00;99038.22;5094304;28;20188;-66
2024/01/01 00:16:39;;;;;;;11.10;5.73;;;;;;;6.22;100.00;99049.59;5098171;28;20194;-67
2024/01/01 00:19:04;;;;;;;9.03;5.43;;;;;;;6.12;100.00;99045.88;5095604;28;20184;-67
2024/01/01 00:21:30;;;;;;;8.63;4.70;;;;;;;6.14;100.00;99054.28;5083058;28;20231;-68
2024/01/01 00:23:55;;;;;;;9.00;4.47;;;;;;;5.95;100.00;99054.38;5076415;28;20646;-67
2024/01/01 00:26:20;;;;;;;8.07;4.43;;;;;;;6.04;100.00;99051.41;5097386;28;20225;-78
2024/01/01 00:28:45;;;;;;;9.80;4.53;;;;;;;6.13;100.00;99042.44;5094198;28;20180;-70
2024/01/01 00:31:11;;;;;;;7.80;4.47;;;;;;;6.12;100.00;99043.31;5059952;28;20232;-72
2024/01/01 00:33:36;;;;;;;7.20;3.77;;;;;;;6.16;100.00;99037.13;5089595;28;20652;-71
2024/01/01 00:36:01;;;;;;;6.77;5.03;;;;;;;6.08;100.00;99029.91;5092252;28;20184;-71
2024/01/01 00:38:27;;;;;;;7.77;4.53;;;;;;;6.03;100.00;99041.25;5103861;28;20199;-71
2024/01/01 00:40:52;;;;;;;9.87;4.10;;;;;;;5.96;100.00;99038.16;5099002;28;20220;-71
2024/01/01 00:43:17;;;;;;;9.00;4.63;;;;;;;5.86;100.00;99030.16;5109158;28;20167;-71
2024/01/01 00:45:43;;;;;;;7.60;4.37;;;;;;;5.80;100.00;99033.88;5109213;28;20554;-69
2024/01/01 00:48:08;;;;;;;13.27;4.83;;;;;;;5.78;100.00;99042.50;5109776;28;20195;-69
2024/01/01 00:50:33;;;;;;;9.60;4.20;;;;;;;5.73;100.00;99045.31;5098073;28;20674;-70
2024/01/01 00:52:59;;;;;;;8.20;3.53;;;;;;;5.62;100.00;99052.69;5091782;28;20183;-68
2024/01/01 00:55:24;;;;;;;5.63;3.43;;;;;;;5.55;100.00;99047.06;5107518;28;20172;-68
2024/01/01 00:57:49;;;;;;;9.80;3.60;;;;;;;5.59;100.00;99060.47;5109719;28;20175;-69
2024/01/01 01:00:15;;;;;;;9.97;4.40;;;;;;;5.55;100.00;99057.25;5096899;28;20177;-68
2024/01/01 01:02:40;;;;;;;12.10;4.47;;;;;;;5.46;100.00;99056.00;5091019;28;20210;-68
2024/01/01 01:05:05;;;;;;;6.70;4.87;;;;;;;5.73;100.00;99062.31;5088675;28;20196;-68
2024/01/01 01:07:31;;;;;;;11.17;5.00;;;;;;;5.75;100.00;99075.84;5093611;28;20197;-68
2024/01/01 01:09:56;;;;;;;12.47;5.80;;;;;;;5.87;100.00;99074.41;5075849;28;20207;-66
2024/01/01 01:12:22;;;;;;;12.67;5.67;;;;;;;5.90;100.00;99066.56;5095892;28;20231;-69
2024/01/01 01:14:48;;;;;;;8.50;5.57;;;;;;;6.03;100.00;99069.31;5109004;28;20187;-69
2024/01/01 01:17:13;;;;;;;11.37;5.77;;;;;;;6.10;100.00;99076.59;5092722;28;20167;-69
2024/01/01 01:19:38;;;;;;;12.00;5.40;;;;;;;6.14;100.00;99080.63;5088799;28;20218;-65
2024/01/01 01:22:04;;;;;;;13.87;6.67;;;;;;;6.30;100.00;99082.38;5082469;28;20243;-66
2024/01/01 01:24:29;;;;;;;9.70;5.60;;;;;;;6.33;100.00;99074.56;5106892;28;20668;-65
2024/01/01 01:26:54;;;;;;;15.70;6.27;;;;;;;6.41;100.00;99077.53;5110298;28;20232;-67
2024/01/01 01:29:19;;;;;;;8.73;6.10;;;;;;;6.40;100.00;99080.16;5086984;28;20184;-66
2024/01/01 01:31:46;;;;;;;15.10;7.07;;;;;;;6.25;100.00;99079.25;5091357;28;20227;-67
2024/01/01 01:34:12;;;;;;;12.17;6.97;;;;;;;6.35;100.00;99080.41;5088839;28;20189;-67
2024/01/01 01:36:37;;;;;;;12.13;6.47;;;;;;;6.26;100.00;99079.19;5089808;28;20183;-69
2024/01/01 01:39:03;;;;;;;11.50;6.30;;;;;;;6.21;100.00;99080.31;5098113;28;20183;-69
2024/01/01 01:41:28;;;;;;;11.73;6.60;;;;;;;6.36;100.00;99079.47;5063877;28;20234;-70
2024/01/01 01:43:53;;;;;;;13.77;7.40;;;;;;;6.35;100.00;99082.97;5086175;28;20222;-70
2024/01/01 01:46:19;;;;;;;10.90;6.73;;;;;;;6.20;100.00;99082.06;5090571;28;20260;-70
2024/01/01 01:48:44;;;;;;;12.17;7.40;;;;;;;6.24;100.00;99080.13;5078837;28;20317;-67
2024/01/01 01:51:11;;;;;;;12.53;7.93;;;;;;;6.35;100.00;99079.56;5066299;28;20577;-66
2024/01/01 01:53:36;;;;;;;13.97;8.10;;;;;;;6.16;100.00;99077.19;5076766;28;20223;-67
2024/01/01 01:56:04;;;;;;;17.03;8.90;;;;;;;6.20;100.00;99071.84;5096784;28;20655;-69
2024/01/01 01:58:29;;;;;;;13.77;9.03;;;;;;;6.17;100.00;99072.00;5077769;28;20180;-69
2024/01/01 02:00:55;;;;;;;16.40;8.83;;;;;;;6.14;100.00;99079.81;5092930;28;20261;-68
2024/01/01 02:03:21;;;;;;;15.67;9.53;;;;;;;6.19;100.00;99070.19;5087294;28;20263;-69
2024/01/01 02:05:46;;;;;;;15.67;10.10;;;;;;;6.16;100.00;99065.22;5091755;28;20211;-69
2024/01/01 02:08:13;;;;;;;16.83;9.20;;;;;;;6.23;100.00;99078.50;5104905;28;20233;-72
2024/01/01 02:10:39;;;;;;;16.20;11.57;;;;;;;6.27;100.00;99067.22;5098538;28;20240;-69
2024/01/01 02:13:05;;;;;;;16.37;10.17;;;;;;;6.25;100.00;99074.13;5103136;28;20168;-70
2024/01/01 02:15:30;;;;;;;16.70;9.70;;;;;;;6.13;100.00;99066.22;5108669;28;20180;-69
2024/01/01 02:17:55;;;;;;;16.30;9.87;;;;;;;6.16;100.00;99066.97;5072458;28;20216;-69
2024/01/01 02:20:21;;;;;;;15.93;10.27;;;;;;;6.33;100.00;99083.97;5094964;28;21618;-69
2024/01/01 02:22:46;;;;;;;18.37;10.67;;;;;;;6.36;100.00;99079.47;5094516;28;20180;-69
2024/01/01 02:25:12;;;;;;;21.43;11.43;;;;;;;6.45;100.00;99084.13;5094639;28;20212;-71
2024/01/01 02:27:39;;;;;;;15.77;10.63;;;;;;;6.43;100.00;99082.56;5076903;28;20179;-70
2024/01/01 02:30:10;;;;;;;18.53;10.80;;;;;;;6.53;100.00;99082.88;5069642;28;20627;-70
2024/01/01 02:32:38;;;;;;;20.17;9.83;;;;;;;6.51;100.00;99074.47;5090522;28;20183;-72
2024/01/01 02:35:07;;;;;;;19.50;10.87;;;;;;;6.45;100.00;99073.09;5095218;28;20626;-69
2024/01/01 02:37:33;;;;;;;16.93;9.50;;;;;;;6.36;100.00;99071.81;5093180;28;20187;-70
2024/01/01 02:39:59;;;;;;;14.63;10.07;;;;;;;6.34;100.00;99078.75;5112943;28;20237;-69
2024/01/01 02:42:24;;;;;;;17.23;9.63;;;;;;;6.43;100.00;99077.44;5082060;28;20294;-69
2024/01/01 02:44:49;;;;;;;19.17;9.60;;;;;;;6.37;100.00;99078.59;5094695;28;20191;-68
2024/01/01 02:47:15;;;;;;;15.03;10.37;;;;;;;6.42;100.00;99068.13;5093249;28;20271;-69
2024/01/01 02:49:40;;;;;;;14.70;9.20;;;;;;;6.13;100.00;99070.50;5106742;28;20181;-69
2024/01/01 02:52:05;;;;;;;14.27;8.17;;;;;;;6.03;100.00;99070.16;5076397;28;20231;-69
2024/01/01 02:54:30;;;;;;;14.90;7.30;;;;;;;6.03;100.00;99082.94;5100314;28;20183;-68
2024/01/01 02:56:56;;;;;;;12.27;4.97;;;;;;;5.92;100.00;99068.13;5093962;28;20171;-69
2024/01/01 02:59:21;;;;;;;11.00;4.77;;;;;;;5.92;100.00;99078.34;5111662;28;20191;-70
2024/01/01 03:01:46;;;;;;;11.40;4.70;;;;;;;5.81;100.00;99068.69;5101530;28;20231;-69
2024/01/01 03:04:11;;;;;;;8.20;4.07;;;;;;;5.77;100.00;99076.59;5088683;28;20208;-69
2024/01/01 03:06:37;;;;;;;12.70;3.23;;;;;;;5.77;100.00;99067.19;5104381;28;20187;-69
2024/01/01 03:09:02;;;;;;;5.33;2.30;;;;;;;5.85;100.00;99073.63;5093628;28;20175;-69
2024/01/01 03:11:28;;;;;;;7.40;2.97;;;;;;;5.82;100.00;99078.00;5083565;28;20231;-69
2024/01/01 03:13:53;;;;;;;9.07;3.10;;;;;;;5.89;100.00;99075.97;5110992;28;20253;-70
2024/01/01 03:16:18;;;;;;;7.43;2.70;;;;;;;5.81;100.00;99078.06;5112028;28;20179;-71
2024/01/01 03:18:44;;;;;;;8.13;2.73;;;;;;;5.82;100.00;99084.84;5093175;28;20171;-70
2024/01/01 03:21:09;;;;;;;8.60;2.90;;;;;;;5.76;100.00;99082.59;5100549;28;20322;-74
2024/01/01 03:23:34;;;;;;;7.00;2.77;;;;;;;5.75;100.00;99080.94;5088056;28;20213;-70
2024/01/01 03:25:59;;;;;;;6.90;2.73;;;;;;;5.71;100.00;99082.00;5094335;28;20637;-69
2024/01/01 03:28:26;;;;;;;6.13;2.60;;;;;;;5.66;100.00;99079.69;5090942;28;20199;-69
2024/01/01 03:30:51;;;;;;;7.23;2.97;;;;;;;5.57;100.00;99082.69;5082779;28;20257;-69
2024/01/01 03:33:16;;;;;;;8.10;3.27;;;;;;;5.52;100.00;99093.13;5079707;28;20179;-69
2024/01/01 03:35:42;;;;;;;6.77;2.87;;;;;;;5.49;100.00;99083.91;5105437;28;20195;-69
2024/01/01 03:38:07;;;;;;;7.20;2.70;;;;;;;5.50;100.00;99092.38;5091539;28;20180;-69
2024/01/01 03:40:32;;;;;;;8.70;3.50;;;;;;;5.42;100.00;99091.94;5081345;28;20231;-70
2024/01/01 03:42:57;;;;;;;10.80;4.00;;;;;;;5.41;100.00;99108.13;5079576;28;20167;-69
2024/01/01 03:45:23;;;;;;;11.30;3.40;;;;;;;5.29;100.00;99102.72;5111566;28;20191;-69
2024/01/01 03:47:48;;;;;;;6.47;2.87;;;;;;;5.47;100.00;99100.16;5110930;28;20191;-70
2024/01/01 03:50:14;;;;;;;5.67;2.90;;;;;;;5.47;100.00;99106.13;5101591;28;20183;-70
2024/01/01 03:52:40;;;;;;;8.07;2.73;;;;;;;5.55;100.00;99092.97;5096939;28;20171;-70
2024/01/01 03:55:06;;;;;;;8.17;2.70;;;;;;;5.57;100.00;99098.00;5093949;28;20202;-69
2024/01/01 03:57:35;;;;;;;8.57;3.03;;;;;;;5.49;100.00;99100.94;5110505;28;20664;-69
2024/01/01 04:00:00;;;;;;;8.57;2.50;;;;;;;5.58;100.00;99104.75;5092954;28;20221;-69
2024/01/01 04:02:26;;;;;;;10.87;2.80;;;;;;;5.59;100.00;99097.00;5082189;28;20246;-69
2024/01/01 04:04:51;;;;;;;13.07;3.30;;;;;;;5.53;100.00;99099.06;5111477;28;20290;-69
2024/01/01 04:07:17;;;;;;;7.93;3.17;;;;;;;5.46;100.00;99107.00;5109855;28;20182;-69
2024/01/01 04:09:43;;;;;;;11.10;3.73;;;;;;;5.54;100.00;99106.63;5092953;28;20187;-69
2024/01/01 04:12:08;;;;;;;6.67;2.30;;;;;;;5.51;100.00;99114.44;5097690;28;20801;-69
2024/01/01 04:14:33;;;;;;;9.93;2.60;;;;;;;5.49;100.00;99119.63;5111578;28;20239;-70
2024/01/01 04:16:58;;;;;;;9.17;2.60;;;;;;;5.33;100.00;99118.69;5110457;28;20183;-68
2024/01/01 04:19:24;;;;;;;8.50;2.60;;;;;;;5.37;100.00;99104.09;5092776;28;20183;-68
2024/01/01 04:21:49;;;;;;;8.53;2.30;;;;;;;5.29;100.00;99112.94;5098762;28;20693;-69
2024/01/01 04:24:14;;;;;;;5.20;2.13;;;;;;;5.37;100.00;99115.13;5111241;28;20242;-69
2024/01/01 04:26:40;;;;;;;7.27;2.17;;;;;;;5.27;100.00;99119.84;5092247;28;20187;-71
2024/01/01 04:29:05;;;;;;;13.03;2.93;;;;;;;5.20;100.00;99108.28;5091680;28;20646;-69
2024/01/01 04:31:30;;;;;;;7.33;2.00;;;;;;;5.28;100.00;99100.25;5071772;27;20303;-68
2024/01/01 04:33:56;;;;;;;6.10;2.23;;;;;;;5.47;100.00;99089.97;5085570;28;20191;-68
2024/01/01 04:36:21;;;;;;;8.97;1.97;;;;;;;5.41;100.00;99097.91;5072821;28;20265;-73
2024/01/01 04:38:47;;;;;;;9.37;2.23;;;;;;;5.39;100.00;99090.34;5073092;28;20184;-69
2024/01/01 04:41:12;;;;;;;6.33;1.80;;;;;;;5.47;100.00;99095.06;5064335;28;20242;-70
2024/01/01 04:43:40;;;;;;;8.87;2.60;;;;;;;5.29;100.00;99097.63;5095333;28;20259;-71
2024/01/01 04:46:07;;;;;;;5.63;1.70;;;;;;;5.31;100.00;99097.56;5077994;28;20211;-69
2024/01/01 04:48:33;;;;;;;6.43;1.83;;;;;;;5.26;100.00;99100.34;5095427;28;20214;-70
2024/01/01 04:50:59;;;;;;;7.47;2.13;;;;;;;5.16;100.00;99094.84;5066788;28;20247;-69
2024/01/01 04:53:24;;;;;;;7.80;2.00;;;;;;;5.10;100.00;99102.81;5094485;28;20172;-69
2024/01/01 04:55:49;;;;;;;7.17;2.00;;;;;;;5.00;100.00;99099.06;5077285;28;20172;-69
2024/01/01 04:58:15;;;;;;;3.47;1.20;;;;;;;4.92;100.00;99093.47;5095040;28;20180;-69
2024/01/01 05:00:40;;;;;;;2.87;1.73;;;;;;;4.96;100.00;99088.16;5066502;28;20231;-69
2024/01/01 05:03:05;;;;;;;6.67;1.80;;;;;;;4.92;100.00;99099.38;5094531;28;20191;-68
2024/01/01 05:05:30;;;;;;;5.53;1.70;;;;;;;4.87;100.00;99108.97;5095103;28;20248;-69
2024/01/01 05:07:56;;;;;;;4.37;1.70;;;;;;;4.81;100.00;99115.22;5076472;28;20596;-69
2024/01/01 05:10:21;;;;;;;6.73;1.83;;;;;;;4.80;100.00;99118.66;5085054;28;20223;-68
2024/01/01 05:12:46;;;;;;;6.83;2.10;;;;;;;4.71;100.00;99121.59;5093735;28;20184;-70
2024/01/01 05:15:12;;;;;;;6.20;2.43;;;;;;;4.68;100.00;99132.75;5094774;28;20187;-68
2024/01/01 05:17:37;;;;;;;9.07;2.23;;;;;;;4.76;100.00;99126.50;5076569;28;20214;-69
2024/01/01 05:20:03;;;;;;;7.30;2.27;;;;;;;4.79;100.00;99126.38;5075971;28;20219;-70
2024/01/01 05:22:29;;;;;;;4.10;1.70;;;;;;;4.71;100.00;99118.25;5092218;28;20221;-69
2024/01/01 05:24:55;;;;;;;8.47;2.07;;;;;;;4.78;100.00;99122.16;5076821;28;20642;-69
2024/01/01 05:27:20;;;;;;;6.97;3.03;;;;;;;4.68;100.00;99114.94;5094411;28;20175;-69
2024/01/01 05:29:46;;;;;;;3.07;1.80;;;;;;;4.76;100.00;99112.03;5094693;28;20183;-69
2024/01/01 05:32:11;;;;;;;10.40;2.10;;;;;;;4.76;100.00;99121.41;5066045;28;20235;-69
2024/01/01 05:34:36;;;;;;;4.10;1.50;;;;;;;4.75;100.00;99118.03;5076207;28;20186;-68
2024/01/01 05:37:02;;;;;;;7.93;1.90;;;;;;;4.78;100.00;99132.34;5075923;28;20234;-69
2024/01/01 05:39:27;;;;;;;7.93;1.90;;;;;;;4.75;100.00;99130.78;5094273;28;20195;-68
2024/01/01 05:41:52;;;;;;;4.17;1.53;;;;;;;4.79;100.00;99128.91;5083377;28;20242;-68
2024/01/01 05:44:17;;;;;;;4.20;1.60;;;;;;;4.89;100.00;99139.47;5094421;28;20203;-70
2024/01/01 05:46:43;;;;;;;4.33;1.30;;;;;;;4.94;100.00;99138.38;5093530;28;20214;-70
2024/01/01 05:49:08;;;;;;;6.67;1.80;;;;;;;5.03;100.00;99149.88;5094519;28;20177;-69
2024/01/01 05:51:33;;;;;;;4.60;1.70;;;;;;;5.00;100.00;99147.47;5082789;28;20702;-69
2024/01/01 05:53:59;;;;;;;6.67;1.97;;;;;;;4.98;100.00;99152.63;5093721;28;20599;-69
2024/01/01 05:56:27;;;;;;;4.33;1.73;;;;;;;5.01;100.00;99152.50;5085683;28;20180;-69
2024/01/01 05:58:52;;;;;;;6.37;2.07;;;;;;;5.05;100.00;99144.69;5095301;28;20190;-68
2024/01/01 06:01:17;;;;;;;6.27;2.17;;;;;;;4.96;100.00;99157.00;5073995;28;20238;-70
2024/01/01 06:03:44;;;;;;;7.33;2.23;;;;;;;5.03;100.00;99142.22;5097141;28;20673;-70
2024/01/01 06:06:09;;;;;;;8.23;2.50;;;;;;;5.14;100.00;99134.88;5113722;28;20668;-68
2024/01/01 06:08:35;;;;;;;5.63;1.70;;;;;;;5.11;100.00;99147.78;5093743;28;20182;-68
2024/01/01 06:11:00;;;;;;;8.40;2.20;;;;;;;5.17;100.00;99149.22;5084487;28;20230;-68
2024/01/01 06:13:25;;;;;;;11.60;1.93;;;;;;;5.25;100.00;99151.41;5112273;28;20170;-67
2024/01/01 06:15:51;;;;;;;9.50;2.30;;;;;;;5.19;100.00;99156.81;5113415;28;20187;-69
2024/01/01 06:18:17;;;;;;;7.17;1.97;;;;;;;5.17;100.00;99155.16;5112178;28;20171;-69
2024/01/01 06:20:42;;;;;;;9.47;1.80;;;;;;;5.20;100.00;99151.63;5073770;28;20777;-69
2024/01/01 06:23:07;;;;;;;5.13;2.10;;;;;;;5.06;100.00;99149.75;5095907;28;20681;-71
2024/01/01 06:25:33;;;;;;;4.97;1.50;;;;;;;5.08;100.00;99142.00;5095123;28;20195;-68
2024/01/01 06:27:58;;;;;;;8.17;2.17;;;;;;;4.97;100.00;99139.97;5093417;28;20242;-69
2024/01/01 06:30:23;;;;;;;7.60;1.80;;;;;;;4.79;100.00;99155.22;5102932;28;20235;-69
2024/01/01 06:32:49;;;;;;;9.17;2.00;;;;;;;4.73;100.00;99157.22;5081026;28;20186;-69
2024/01/01 06:35:14;;;;;;;8.87;2.00;;;;;;;4.67;100.00;99161.69;5113817;28;20212;-69
2024/01/01 06:37:39;;;;;;;8.23;2.60;;;;;;;4.74;100.00;99163.94;5094258;28;20191;-68
2024/01/01 06:40:06;;;;;;;4.27;1.77;;;;;;;4.72;100.00;99179.31;5102651;27;20182;-68
2024/01/01 06:42:32;;;;;;;7.43;2.00;;;;;;;4.63;100.00;99174.63;5110182;28;20183;-68
2024/01/01 06:45:00;;;;;;;6.17;1.50;;;;;;;4.67;100.00;99178.69;5113175;28;20653;-68
2024/01/01 06:47:25;;;;;;;8.60;2.40;;;;;;;4.67;100.00;99193.97;5111772;28;20206;-68
2024/01/01 06:49:51;;;;;;;3.63;1.40;;;;;;;4.64;100.00;99191.56;5094602;28;20188;-68
2024/01/01 06:52:16;;;;;;;6.20;2.40;;;;;;;4.56;100.00;99201.28;5100530;28;20224;-68
2024/01/01 06:54:41;;;;;;;5.73;2.13;;;;;;;4.56;100.00;99203.81;5094338;28;20275;-67
2024/01/01 06:57:07;;;;;;;4.23;1.40;;;;;;;4.54;100.00;99206.44;5099000;28;20217;-68
2024/01/01 06:59:32;;;;;;;3.87;1.20;;;;;;;4.50;100.00;99202.34;5112536;28;20181;-68
2024/01/01 07:01:58;;;;;;;3.97;1.27;;;;;;;4.43;100.00;99203.50;5085068;28;20242;-68
2024/01/01 07:04:25;;;;;;;4.30;1.20;;;;;;;4.49;100.00;99216.81;5101013;28;20205;-68
2024/01/01 07:06:50;;;;;;;7.23;1.50;;;;;;;4.42;100.00;99212.88;5111266;28;20210;-67
2024/01/01 07:09:16;;;;;;;3.37;1.47;;;;;;;4.40;100.00;99211.31;5112063;28;20206;-68
2024/01/01 07:11:41;;;;;;;8.53;1.47;;;;;;;4.32;100.00;99209.91;5073651;28;20220;-69
2024/01/01 07:14:07;;;;;;;3.17;1.20;;;;;;;4.36;100.00;99213.16;5091212;28;20276;-69
2024/01/01 07:16:32;;;;;;;5.13;1.80;;;;;;;4.34;100.00;99214.94;5099423;28;20190;-68
2024/01/01 07:18:57;;;;;;;9.03;1.87;;;;;;;4.28;100.00;99223.66;5100061;28;20176;-67
2024/01/01 07:21:23;;;;;;;6.27;1.40;;;;;;;4.31;100.00;99217.63;5085822;28;20256;-70
2024/01/01 07:23:48;;;;;;;6.67;2.13;;;;;;;4.25;100.00;99228.88;5099328;28;20185;-69
2024/01/01 07:26:14;;;;;;;4.40;1.20;;;;;;;4.27;100.00;99231.38;5081105;28;20210;-68
2024/01/01 07:28:39;;;;;;;4.73;1.50;;;;;;;4.27;100.00;99232.19;5080762;28;20181;-69
2024/01/01 07:31:05;;;;;;;6.30;2.17;;;;;;;4.20;100.00;99241.81;5086390;28;20737;-68
2024/01/01 07:33:32;;;;;;;4.13;1.47;;;;;;;4.07;100.00;99245.75;5091566;28;20178;-68
2024/01/01 07:35:57;;;;;;;8.43;1.67;;;;;;;4.08;100.00;99244.88;5092162;28;20202;-67
2024/01/01 07:38:22;;;;;;;10.30;2.03;;;;;;;4.17;100.00;99251.31;5100315;28;20625;-67
2024/01/01 07:40:49;;;;;;;6.70;1.70;;;;;;;4.20;100.00;99244.38;5079486;28;20695;-67
2024/01/01 07:43:14;;;;;;;6.03;1.70;;;;;;;4.26;100.00;99255.19;5099724;28;20187;-68
2024/01/01 07:45:39;;;;;;;5.70;1.87;;;;;;;4.20;100.00;99251.16;5111172;28;20205;-67
2024/01/01 07:48:06;;;;;;;5.53;2.13;;;;;;;4.25;100.00;99241.59;5111461;28;20566;-68
2024/01/01 07:50:32;;;;;;;8.00;1.57;;;;;;;4.19;100.00;99232.53;5080985;28;20301;-68
2024/01/01 07:52:57;;;;;;;7.93;1.90;;;;;;;4.25;100.00;99239.06;5091407;28;20239;-67
2024/01/01 07:55:23;;;;;;;10.13;1.80;;;;;;;4.34;100.00;99235.28;5091512;28;20194;-69
2024/01/01 07:57:48;;;;;;;9.03;2.77;;;;;;;4.42;100.00;99240.09;5100049;28;20186;-68
2024/01/01 08:00:15;;;;;;;12.63;2.20;;;;;;;4.38;100.00;99247.03;5099340;28;20296;-68
2024/01/01 08:02:42;;;;;;;7.20;2.33;;;;;;;4.41;100.00;99244.34;5073527;28;20169;-68
2024/01/01 08:05:08;;;;;;;8.13;2.60;;;;;;;4.44;100.00;99236.56;5086648;28;20975;-68
2024/01/01 08:07:33;;;;;;;7.80;2.23;;;;;;;4.53;100.00;99250.63;5091064;28;20275;-68
2024/01/01 08:09:58;;;;;;;6.00;1.80;;;;;;;4.42;100.00;99247.72;5091757;28;20171;-69
2024/01/01 08:12:23;;;;;;;6.20;1.90;;;;;;;4.49;100.00;99251.63;5063135;28;20227;-68
2024/01/01 08:14:49;;;;;;;8.40;2.30;;;;;;;4.43;100.00;99257.00;5075274;28;20189;-69
2024/01/01 08:17:14;;;;;;;10.80;2.40;;;;;;;4.54;100.00;99252.28;5110980;28;20185;-69
2024/01/01 08:19:39;;;;;;;13.47;3.10;;;;;;;4.55;100.00;99266.66;5092746;28;20191;-69
2024/01/01 08:22:05;;;;;;;4.27;1.80;;;;;;;4.50;100.00;99271.97;5100151;28;20249;-70
2024/01/01 08:24:30;;;;;;;8.53;2.57;;;;;;;4.60;100.00;99274.09;5109355;28;20203;-67
2024/01/01 08:26:55;;;;;;;7.77;2.10;;;;;;;4.56;100.00;99273.41;5073106;28;20255;-68
2024/01/01 08:29:20;;;;;;;9.57;1.80;;;;;;;4.69;100.00;99274.53;5104549;28;20193;-68
2024/01/01 08:31:46;;;;;;;9.00;2.20;;;;;;;4.71;100.00;99269.38;5058535;27;20339;-69
2024/01/01 08:34:11;;;;;;;9.17;2.50;;;;;;;4.79;100.00;99269.06;5098989;28;20518;-69
2024/01/01 08:36:36;;;;;;;7.80;2.57;;;;;;;4.80;100.00;99280.88;5096904;28;20198;-68
2024/01/01 08:39:01;;;;;;;13.07;2.93;;;;;;;4.88;100.00;99286.47;5072629;28;20187;-70
2024/01/01 08:41:27;;;;;;;10.13;2.00;;;;;;;4.92;100.00;99275.25;5062497;28;20243;-69
2024/01/01 08:43:56;;;;;;;8.97;2.20;;;;;;;4.95;100.00;99277.66;5080125;28;20594;-69
2024/01/01 08:46:24;;;;;;;5.63;2.03;;;;;;;5.25;100.00;99294.22;5110633;28;20183;-69
2024/01/01 08:48:50;;;;;;;9.10;2.40;;;;;;;5.26;100.00;99293.28;5093380;28;20177;-70
2024/01/01 08:51:15;;;;;;;12.73;2.43;;;;;;;5.39;100.00;99306.31;5081708;28;20317;-69
2024/01/01 08:53:40;;;;;;;5.57;1.90;;;;;;;5.65;100.00;99310.22;5092166;28;20691;-69
2024/01/01 08:56:06;;;;;;;13.93;2.53;;;;;;;6.01;100.00;99290.72;5111726;28;20183;-68
2024/01/01 08:58:31;;;;;;;10.47;2.43;;;;;;;6.38;100.00;99299.09;5109707;28;20183;-69
2024/01/01 09:00:57;;;;;;;5.70;2.03;;;;;;;6.45;100.00;99292.78;5080359;28;20766;-69
2024/01/01 09:03:22;;;;;;;7.57;2.33;;;;;;;6.59;100.00;99290.34;5103664;28;20180;-68
2024/01/01 09:05:47;;;;;;;6.67;2.13;;;;;;;6.73;100.00;99291.38;5098497;28;20248;-69
2024/01/01 09:08:13;;;;;;;12.67;2.43;;;;;;;7.10;100.00;99285.16;5110103;28;20630;-68
2024/01/01 09:10:38;;;;;;;9.67;2.30;;;;;;;7.28;100.00;99290.19;5100208;28;20227;-71
2024/01/01 09:13:03;;;;;;;6.90;2.80;;;;;;;7.42;100.00;99292.00;5110260;28;20262;-70
2024/01/01 09:15:28;;;;;;;13.47;3.13;;;;;;;6.95;100.00;99293.63;5085585;28;20208;-69
2024/01/01 09:17:54;;;;;;;8.20;2.67;;;;;;;6.89;100.00;99297.34;5090407;28;20176;-69
2024/01/01 09:20:19;;;;;;;11.27;4.40;;;;;;;6.80;100.00;99302.94;5067775;28;20512;-69
2024/01/01 09:22:44;;;;;;;19.07;7.50;;;;;;;6.89;100.00;99310.13;5075774;28;20180;-70
2024/01/01 09:25:09;;;;;;;14.07;5.17;;;;;;;6.91;100.00;99312.63;5091636;28;20674;-69
2024/01/01 09:27:35;;;;;;;7.47;3.07;;;;;;;6.75;100.00;99315.94;5093299;28;20188;-68
2024/01/01 09:30:00;;;;;;;4.47;2.10;;;;;;;6.84;100.00;99318.94;5101208;28;20194;-68
2024/01/01 09:32:25;;;;;;;6.53;2.20;;;;;;;6.70;100.00;99320.47;5072805;28;20220;-68
2024/01/01 09:34:51;;;;;;;8.67;2.43;;;;;;;6.65;100.00;99322.44;5113795;28;20615;-69
2024/01/01 09:37:16;;;;;;;6.73;2.00;;;;;;;6.69;100.00;99323.94;5095345;28;20195;-69
2024/01/01 09:39:43;;;;;;;3.67;1.43;;;;;;;6.67;100.00;99335.13;5113038;28;20195;-69
2024/01/01 09:42:08;;;;;;;6.83;2.33;;;;;;;6.51;100.00;99330.81;5100611;28;20253;-69
2024/01/01 09:44:34;;;;;;;10.33;2.00;;;;;;;6.53;100.00;99341.75;5095218;28;20661;-69
2024/01/01 09:46:59;;;;;;;5.60;1.63;;;;;;;6.62;100.00;99330.25;5112530;28;20199;-69
2024/01/01 09:49:24;;;;;;;8.77;1.97;;;;;;;6.73;100.00;99338.19;5108927;28;20688;-66
2024/01/01 09:51:51;;;;;;;5.53;2.03;;;;;;;6.77;100.00;99342.25;5083732;28;20267;-69
2024/01/01 09:54:16;;;;;;;8.07;1.80;;;;;;;6.93;100.00;99339.75;5100018;28;20182;-71
2024/01/01 09:56:42;;;;;;;8.47;2.73;;;;;;;6.96;100.00;99336.22;5099987;28;20184;-70
2024/01/01 09:59:08;;;;;;;8.27;2.10;;;;;;;7.02;100.00;99337.59;5087410;28;20756;-73
2024/01/01 10:01:34;;;;;;;14.47;2.87;;;;;;;7.19;100.00;99339.28;5064895;28;20236;-73
2024/01/01 10:04:06;;;;;;;9.27;2.53;;;;;;;7.21;100.00;99342.59;5093513;28;20171;-71
2024/01/01 10:06:34;;;;;;;13.70;3.07;;;;;;;7.12;100.00;99341.34;5103111;28;20187;-71
2024/01/01 10:09:10;;;;;;;9.07;3.10;;;;;;;7.07;100.00;99345.84;5105592;28;20179;-70
2024/01/01 10:11:41;;;;;;;11.47;2.60;;;;;;;7.02;100.00;99332.50;5097839;28;20309;-71
2024/01/01 10:14:07;;;;;;;9.57;2.50;;;;;;;6.99;100.00;99342.91;5085326;28;20168;-70
2024/01/01 10:16:33;;;;;;;9.97;2.17;;;;;;;6.99;100.00;99348.81;5097194;28;20191;-69
2024/01/01 10:19:01;;;;;;;7.60;2.33;;;;;;;7.05;100.00;99338.28;5111679;28;20546;-71
2024/01/01 10:21:38;;;;;;;7.10;2.23;;;;;;;7.14;100.00;99331.84;5078900;28;20235;-71
2024/01/01 10:24:17;;;;;;;12.70;3.00;;;;;;;7.22;100.00;99336.59;5080888;28;20219;-71
2024/01/01 10:26:44;;;;;;;16.80;3.40;;;;;;;7.27;100.00;99335.41;5074165;28;20192;-71
2024/01/01 10:29:12;;;;;;;14.13;3.03;;;;;;;7.37;100.00;99334.94;5080914;28;20229;-71
2024/01/01 10:31:44;;;;;;;8.97;2.83;;;;;;;7.33;100.00;99334.28;5071750;28;20231;-72
2024/01/01 10:34:11;;;;;;;11.50;2.87;;;;;;;7.41;100.00;99332.13;5088574;28;20175;-69
2024/01/01 10:36:37;;;;;;;7.43;2.37;;;;;;;7.38;100.00;99331.44;5094233;28;20213;-69
2024/01/01 10:39:08;;;;;;;18.40;3.53;;;;;;;7.32;100.00;99335.19;5092565;28;20255;-69
2024/01/01 10:41:36;;;;;;;10.20;2.43;;;;;;;7.34;100.00;99341.03;5083582;28;20786;-70
2024/01/01 10:44:08;;;;;;;10.73;2.40;;;;;;;7.55;100.00;99340.78;5110460;28;20179;-69
2024/01/01 10:46:39;;;;;;;11.80;2.63;;;;;;;7.61;100.00;99342.19;5111997;28;20191;-69
2024/01/01 10:49:11;;;;;;;12.20;2.73;;;;;;;7.41;100.00;99336.41;5111084;28;20179;-68
2024/01/01 10:51:51;;;;;;;9.13;2.83;;;;;;;7.44;100.00;99341.34;5076114;28;20224;-69
2024/01/01 10:54:50;;;;;;;7.47;2.63;;;;;;;7.42;100.00;99346.56;5075987;28;20172;-69
2024/01/01 10:57:40;;;;;;;10.50;3.40;;;;;;;7.59;100.00;99352.50;5093782;28;20310;-70
2024/01/01 11:00:22;;;;;;;6.00;2.43;;;;;;;7.78;100.00;99343.81;5082638;28;20260;-72
2024/01/01 11:02:48;;;;;;;12.93;2.83;;;;;;;7.89;100.00;99351.75;5060899;28;20173;-71
2024/01/01 11:05:15;;;;;;;12.47;3.50;;;;;;;7.86;100.00;99355.31;5070534;28;20247;-71
2024/01/01 11:08:01;;;;;;;10.47;2.57;;;;;;;8.06;100.00;99356.75;5083665;28;20266;-70
2024/01/01 11:10:49;;;;;;;8.57;2.60;;;;;;;7.96;100.00;99360.72;5080508;28;20302;-69
2024/01/01 11:13:35;;;;;;;15.13;3.70;;;;;;;8.13;100.00;99364.09;5093636;28;20589;-73
2024/01/01 11:16:04;;;;;;;11.13;2.47;;;;;;;8.15;100.00;99357.13;5091609;28;20199;-68
2024/01/01 11:18:35;;;;;;;8.03;2.20;;;;;;;8.08;100.00;99359.22;5094145;28;20226;-68
2024/01/01 11:21:01;;;;;;;10.00;2.70;;;;;;;8.19;100.00;99363.75;5063332;28;20278;-68
2024/01/01 11:23:46;;;;;;;7.57;2.10;;;;;;;8.13;100.00;99356.41;5077394;28;20230;-70
2024/01/01 11:26:23;;;;;;;9.63;2.90;;;;;;;8.10;100.00;99356.56;5073414;28;20717;-70